sensor_id;sensor_type;location;lat;lon;timestamp;pressure;altitude;pressure_sealevel;temperature;humidity
10176;BME280;18221;38.704;0.152;2023-05-23T00:12:41;98454.84;;;21.77;53.79
10176;BME280;18221;38.704;0.152;2023-05-23T00:15:10;98460.75;;;21.67;53.87
10176;BME280;18221;38.704;0.152;2023-05-23T00:17:38;98452.56;;;21.56;54.53
10176;BME280;18221;38.704;0.152;2023-05-23T00:20:07;98453.44;;;21.25;57.02
10176;BME280;18221;38.704;0.152;2023-05-23T00:22:37;98450.69;;;21.07;58.12
10176;BME280;18221;38.704;0.152;2023-05-23T00:25:09;98451.06;;;21.17;58.09
10176;BME280;18221;38.704;0.152;2023-05-23T00:27:37;98446.84;;;21.21;58.19
10176;BME280;18221;38.704;0.152;2023-05-23T00:30:08;98456.56;;;20.97;59.14
10176;BME280;18221;38.704;0.152;2023-05-23T00:32:36;98446.28;;;20.81;59.67
10176;BME280;18221;38.704;0.152;2023-05-23T00:35:05;98436.50;;;20.86;59.88
10176;BME280;18221;38.704;0.152;2023-05-23T00:37:33;98441.81;;;20.68;60.18
10176;BME280;18221;38.704;0.152;2023-05-23T00:40:01;98443.34;;;20.58;60.46
10176;BME280;18221;38.704;0.152;2023-05-23T00:42:29;98442.31;;;20.52;60.80
10176;BME280;18221;38.704;0.152;2023-05-23T00:44:58;98434.78;;;20.67;60.79
10176;BME280;18221;38.704;0.152;2023-05-23T00:47:27;98438.53;;;20.60;60.42
10176;BME280;18221;38.704;0.152;2023-05-23T00:49:56;98433.34;;;20.65;60.93
10176;BME280;18221;38.704;0.152;2023-05-23T00:52:24;98425.63;;;20.68;60.84
10176;BME280;18221;38.704;0.152;2023-05-23T00:54:52;98417.78;;;20.60;60.91
10176;BME280;18221;38.704;0.152;2023-05-23T00:57:20;98410.88;;;20.71;60.85
10176;BME280;18221;38.704;0.152;2023-05-23T00:59:48;98408.06;;;20.59;60.98
10176;BME280;18221;38.704;0.152;2023-05-23T01:02:16;98394.56;;;20.59;61.41
10176;BME280;18221;38.704;0.152;2023-05-23T01:04:49;98391.06;;;20.52;61.55
10176;BME280;18221;38.704;0.152;2023-05-23T01:07:19;98383.41;;;20.49;61.62
10176;BME280;18221;38.704;0.152;2023-05-23T01:09:48;98377.22;;;20.73;61.14
10176;BME280;18221;38.704;0.152;2023-05-23T01:12:26;98370.03;;;20.67;61.18
10176;BME280;18221;38.704;0.152;2023-05-23T01:15:03;98371.03;;;20.42;61.97
10176;BME280;18221;38.704;0.152;2023-05-23T01:17:44;98364.16;;;20.46;61.85
10176;BME280;18221;38.704;0.152;2023-05-23T01:20:23;98360.91;;;20.37;62.17
10176;BME280;18221;38.704;0.152;2023-05-23T01:23:12;98356.00;;;20.27;62.65
10176;BME280;18221;38.704;0.152;2023-05-23T01:26:16;98344.69;;;20.44;62.23
10176;BME280;18221;38.704;0.152;2023-05-23T01:29:00;98344.41;;;20.52;62.09
10176;BME280;18221;38.704;0.152;2023-05-23T01:31:39;98331.22;;;20.37;62.25
10176;BME280;18221;38.704;0.152;2023-05-23T01:34:11;98346.88;;;20.53;61.90
10176;BME280;18221;38.704;0.152;2023-05-23T01:36:42;98352.78;;;20.68;61.52
10176;BME280;18221;38.704;0.152;2023-05-23T01:39:10;98343.31;;;20.59;61.55
10176;BME280;18221;38.704;0.152;2023-05-23T01:41:38;98335.59;;;20.38;62.50
10176;BME280;18221;38.704;0.152;2023-05-23T01:44:08;98328.44;;;20.25;63.02
10176;BME280;18221;38.704;0.152;2023-05-23T01:46:37;98339.56;;;20.36;62.59
10176;BME280;18221;38.704;0.152;2023-05-23T01:49:10;98348.59;;;20.48;62.65
10176;BME280;18221;38.704;0.152;2023-05-23T01:51:39;98340.41;;;20.61;61.86
10176;BME280;18221;38.704;0.152;2023-05-23T01:54:08;98334.84;;;20.80;61.51
10176;BME280;18221;38.704;0.152;2023-05-23T01:56:36;98334.78;;;20.87;61.11
10176;BME280;18221;38.704;0.152;2023-05-23T01:59:04;98326.56;;;21.00;60.62
10176;BME280;18221;38.704;0.152;2023-05-23T02:01:34;98330.03;;;21.07;60.53
10176;BME280;18221;38.704;0.152;2023-05-23T02:04:03;98329.16;;;21.13;60.49
10176;BME280;18221;38.704;0.152;2023-05-23T02:06:30;98333.22;;;20.98;60.92
10176;BME280;18221;38.704;0.152;2023-05-23T02:08:58;98327.28;;;21.14;60.65
10176;BME280;18221;38.704;0.152;2023-05-23T02:11:26;98329.31;;;21.18;60.45
10176;BME280;18221;38.704;0.152;2023-05-23T02:13:54;98332.56;;;21.02;60.80
10176;BME280;18221;38.704;0.152;2023-05-23T02:16:22;98324.34;;;21.15;60.70
10176;BME280;18221;38.704;0.152;2023-05-23T02:18:52;98320.47;;;21.05;60.97
10176;BME280;18221;38.704;0.152;2023-05-23T02:21:21;98315.44;;;21.15;60.66
10176;BME280;18221;38.704;0.152;2023-05-23T02:23:49;98312.06;;;21.19;60.45
10176;BME280;18221;38.704;0.152;2023-05-23T02:26:18;98306.59;;;21.26;60.35
10176;BME280;18221;38.704;0.152;2023-05-23T02:28:46;98311.78;;;21.27;60.20
10176;BME280;18221;38.704;0.152;2023-05-23T02:31:14;98300.22;;;21.20;60.37
10176;BME280;18221;38.704;0.152;2023-05-23T02:33:42;98302.22;;;21.25;60.28
10176;BME280;18221;38.704;0.152;2023-05-23T02:36:12;98308.25;;;21.09;60.57
10176;BME280;18221;38.704;0.152;2023-05-23T02:38:40;98305.47;;;20.90;61.00
10176;BME280;18221;38.704;0.152;2023-05-23T02:41:07;98302.28;;;20.75;61.38
10176;BME280;18221;38.704;0.152;2023-05-23T02:43:35;98292.63;;;20.86;61.19
10176;BME280;18221;38.704;0.152;2023-05-23T02:46:03;98290.44;;;20.76;61.51
10176;BME280;18221;38.704;0.152;2023-05-23T02:48:32;98292.19;;;20.89;61.21
10176;BME280;18221;38.704;0.152;2023-05-23T02:51:00;98290.38;;;21.08;60.84
10176;BME280;18221;38.704;0.152;2023-05-23T02:53:29;98289.81;;;20.99;60.84
10176;BME280;18221;38.704;0.152;2023-05-23T02:55:57;98301.81;;;21.03;61.02
10176;BME280;18221;38.704;0.152;2023-05-23T02:58:25;98298.94;;;21.23;60.73
10176;BME280;18221;38.704;0.152;2023-05-23T03:00:53;98297.44;;;21.09;60.55
10176;BME280;18221;38.704;0.152;2023-05-23T03:03:21;98291.28;;;21.20;60.63
10176;BME280;18221;38.704;0.152;2023-05-23T03:05:49;98297.25;;;21.04;60.72
10176;BME280;18221;38.704;0.152;2023-05-23T03:08:17;98298.25;;;21.09;60.52
10176;BME280;18221;38.704;0.152;2023-05-23T03:10:47;98294.97;;;21.25;60.00
10176;BME280;18221;38.704;0.152;2023-05-23T03:13:15;98283.81;;;21.22;60.17
10176;BME280;18221;38.704;0.152;2023-05-23T03:15:43;98286.34;;;21.17;60.09
10176;BME280;18221;38.704;0.152;2023-05-23T03:18:11;98292.03;;;21.09;60.11
10176;BME280;18221;38.704;0.152;2023-05-23T03:20:39;98292.78;;;20.91;60.45
10176;BME280;18221;38.704;0.152;2023-05-23T03:23:07;98290.22;;;20.78;60.68
10176;BME280;18221;38.704;0.152;2023-05-23T03:25:36;98295.63;;;20.78;60.73
10176;BME280;18221;38.704;0.152;2023-05-23T03:28:05;98291.97;;;20.72;61.01
10176;BME280;18221;38.704;0.152;2023-05-23T03:30:33;98285.97;;;20.88;60.37
10176;BME280;18221;38.704;0.152;2023-05-23T03:33:01;98283.38;;;21.00;60.42
10176;BME280;18221;38.704;0.152;2023-05-23T03:35:29;98290.78;;;21.05;60.08
10176;BME280;18221;38.704;0.152;2023-05-23T03:37:57;98288.38;;;20.97;60.57
10176;BME280;18221;38.704;0.152;2023-05-23T03:40:25;98279.63;;;20.83;60.81
10176;BME280;18221;38.704;0.152;2023-05-23T03:43:04;98289.44;;;20.96;60.47
10176;BME280;18221;38.704;0.152;2023-05-23T03:45:32;98282.31;;;20.83;60.46
10176;BME280;18221;38.704;0.152;2023-05-23T03:48:00;98273.06;;;20.72;60.86
10176;BME280;18221;38.704;0.152;2023-05-23T03:50:29;98277.25;;;20.68;60.88
10176;BME280;18221;38.704;0.152;2023-05-23T03:52:57;98277.03;;;20.70;60.79
10176;BME280;18221;38.704;0.152;2023-05-23T03:55:25;98274.84;;;20.78;60.51
10176;BME280;18221;38.704;0.152;2023-05-23T03:57:53;98282.06;;;20.84;60.56
10176;BME280;18221;38.704;0.152;2023-05-23T04:00:22;98266.91;;;20.83;60.46
10176;BME280;18221;38.704;0.152;2023-05-23T04:02:51;98258.47;;;20.98;60.28
10176;BME280;18221;38.704;0.152;2023-05-23T04:05:19;98258.03;;;21.01;59.83
10176;BME280;18221;38.704;0.152;2023-05-23T04:07:47;98256.44;;;20.93;60.03
10176;BME280;18221;38.704;0.152;2023-05-23T04:10:16;98264.72;;;20.99;60.05
10176;BME280;18221;38.704;0.152;2023-05-23T04:12:44;98270.53;;;20.77;60.48
10176;BME280;18221;38.704;0.152;2023-05-23T04:15:13;98260.47;;;20.66;60.61
10176;BME280;18221;38.704;0.152;2023-05-23T04:17:42;98272.56;;;20.82;60.05
10176;BME280;18221;38.704;0.152;2023-05-23T04:20:10;98269.53;;;20.72;60.30
10176;BME280;18221;38.704;0.152;2023-05-23T04:22:38;98272.00;;;20.73;60.17
10176;BME280;18221;38.704;0.152;2023-05-23T04:25:07;98268.75;;;20.89;60.11
10176;BME280;18221;38.704;0.152;2023-05-23T04:27:35;98270.72;;;20.76;59.91
10176;BME280;18221;38.704;0.152;2023-05-23T04:30:07;98265.13;;;20.77;59.87
10176;BME280;18221;38.704;0.152;2023-05-23T04:32:36;98276.28;;;20.81;59.84
10176;BME280;18221;38.704;0.152;2023-05-23T04:35:07;98274.56;;;20.86;59.68
10176;BME280;18221;38.704;0.152;2023-05-23T04:37:36;98277.28;;;20.86;59.76
10176;BME280;18221;38.704;0.152;2023-05-23T04:40:06;98282.34;;;20.76;59.71
10176;BME280;18221;38.704;0.152;2023-05-23T04:42:34;98286.88;;;20.58;60.26
10176;BME280;18221;38.704;0.152;2023-05-23T04:45:03;98290.88;;;20.73;59.84
10176;BME280;18221;38.704;0.152;2023-05-23T04:47:31;98291.38;;;20.88;59.53
10176;BME280;18221;38.704;0.152;2023-05-23T04:50:00;98296.56;;;20.90;59.48
10176;BME280;18221;38.704;0.152;2023-05-23T04:52:30;98307.06;;;20.73;59.94
10176;BME280;18221;38.704;0.152;2023-05-23T04:54:59;98304.19;;;20.75;59.90
10176;BME280;18221;38.704;0.152;2023-05-23T04:57:28;98316.69;;;20.69;59.94
10176;BME280;18221;38.704;0.152;2023-05-23T04:59:56;98319.38;;;20.69;60.11
10176;BME280;18221;38.704;0.152;2023-05-23T05:02:24;98324.53;;;20.71;59.67
10176;BME280;18221;38.704;0.152;2023-05-23T05:04:52;98309.72;;;20.55;60.04
10176;BME280;18221;38.704;0.152;2023-05-23T05:07:20;98307.97;;;20.67;60.11
10176;BME280;18221;38.704;0.152;2023-05-23T05:09:49;98319.25;;;20.58;60.23
10176;BME280;18221;38.704;0.152;2023-05-23T05:12:17;98317.19;;;20.78;59.95
10176;BME280;18221;38.704;0.152;2023-05-23T05:14:45;98323.97;;;20.62;59.99
10176;BME280;18221;38.704;0.152;2023-05-23T05:17:13;98319.34;;;20.45;60.35
10176;BME280;18221;38.704;0.152;2023-05-23T05:19:42;98312.44;;;20.55;60.25
10176;BME280;18221;38.704;0.152;2023-05-23T05:22:10;98299.66;;;20.69;59.74
10176;BME280;18221;38.704;0.152;2023-05-23T05:24:38;98303.03;;;20.64;59.90
10176;BME280;18221;38.704;0.152;2023-05-23T05:27:08;98306.41;;;20.78;59.74
10176;BME280;18221;38.704;0.152;2023-05-23T05:29:37;98308.03;;;20.85;59.47
10176;BME280;18221;38.704;0.152;2023-05-23T05:32:05;98299.25;;;20.90;59.33
10176;BME280;18221;38.704;0.152;2023-05-23T05:34:34;98305.41;;;20.97;59.26
10176;BME280;18221;38.704;0.152;2023-05-23T05:37:03;98315.50;;;21.08;59.05
10176;BME280;18221;38.704;0.152;2023-05-23T05:39:31;98309.94;;;21.03;59.05
10176;BME280;18221;38.704;0.152;2023-05-23T05:41:59;98311.63;;;20.98;59.43
10176;BME280;18221;38.704;0.152;2023-05-23T05:44:30;98319.28;;;21.01;59.25
10176;BME280;18221;38.704;0.152;2023-05-23T05:46:58;98320.19;;;21.19;59.08
10176;BME280;18221;38.704;0.152;2023-05-23T05:49:26;98325.34;;;21.21;58.71
10176;BME280;18221;38.704;0.152;2023-05-23T05:51:54;98331.03;;;21.13;58.84
10176;BME280;18221;38.704;0.152;2023-05-23T05:54:22;98332.25;;;21.17;59.02
10176;BME280;18221;38.704;0.152;2023-05-23T05:56:50;98339.38;;;21.05;59.20
10176;BME280;18221;38.704;0.152;2023-05-23T05:59:18;98335.34;;;20.96;59.20
10176;BME280;18221;38.704;0.152;2023-05-23T06:01:47;98339.81;;;21.02;59.25
10176;BME280;18221;38.704;0.152;2023-05-23T06:04:18;98336.88;;;21.10;58.91
10176;BME280;18221;38.704;0.152;2023-05-23T06:06:46;98344.13;;;21.09;58.86
10176;BME280;18221;38.704;0.152;2023-05-23T06:09:15;98343.34;;;21.27;58.72
10176;BME280;18221;38.704;0.152;2023-05-23T06:11:43;98341.84;;;21.31;58.47
10176;BME280;18221;38.704;0.152;2023-05-23T06:14:11;98345.66;;;21.23;58.62
10176;BME280;18221;38.704;0.152;2023-05-23T06:16:39;98341.69;;;21.26;58.77
10176;BME280;18221;38.704;0.152;2023-05-23T06:19:08;98342.13;;;21.23;58.31
10176;BME280;18221;38.704;0.152;2023-05-23T06:21:37;98342.00;;;21.36;58.32
10176;BME280;18221;38.704;0.152;2023-05-23T06:24:05;98351.81;;;21.48;57.96
10176;BME280;18221;38.704;0.152;2023-05-23T06:26:33;98348.78;;;21.45;57.99
10176;BME280;18221;38.704;0.152;2023-05-23T06:29:03;98340.50;;;21.58;57.68
10176;BME280;18221;38.704;0.152;2023-05-23T06:31:31;98339.53;;;21.71;57.60
10176;BME280;18221;38.704;0.152;2023-05-23T06:34:00;98333.44;;;21.75;57.25
10176;BME280;18221;38.704;0.152;2023-05-23T06:36:29;98333.53;;;21.69;57.51
10176;BME280;18221;38.704;0.152;2023-05-23T06:38:57;98323.88;;;21.43;57.68
10176;BME280;18221;38.704;0.152;2023-05-23T06:41:25;98333.31;;;21.34;58.01
10176;BME280;18221;38.704;0.152;2023-05-23T06:43:56;98331.50;;;21.28;57.80
10176;BME280;18221;38.704;0.152;2023-05-23T06:46:24;98328.44;;;21.24;58.18
10176;BME280;18221;38.704;0.152;2023-05-23T06:48:52;98329.47;;;21.41;57.85
10176;BME280;18221;38.704;0.152;2023-05-23T06:51:20;98331.00;;;21.37;57.82
10176;BME280;18221;38.704;0.152;2023-05-23T06:53:49;98324.06;;;21.41;57.86
10176;BME280;18221;38.704;0.152;2023-05-23T06:56:17;98333.16;;;21.29;58.10
10176;BME280;18221;38.704;0.152;2023-05-23T06:58:46;98339.69;;;21.39;57.77
10176;BME280;18221;38.704;0.152;2023-05-23T07:01:14;98349.94;;;21.31;58.22
10176;BME280;18221;38.704;0.152;2023-05-23T07:03:42;98354.63;;;21.42;57.97
10176;BME280;18221;38.704;0.152;2023-05-23T07:06:11;98346.50;;;21.60;57.74
10176;BME280;18221;38.704;0.152;2023-05-23T07:08:39;98360.03;;;21.60;57.62
10176;BME280;18221;38.704;0.152;2023-05-23T07:11:09;98355.50;;;21.72;57.66
10176;BME280;18221;38.704;0.152;2023-05-23T07:13:37;98357.22;;;21.67;57.46
10176;BME280;18221;38.704;0.152;2023-05-23T07:16:05;98355.00;;;21.64;57.80
10176;BME280;18221;38.704;0.152;2023-05-23T07:18:33;98357.59;;;21.70;57.61
10176;BME280;18221;38.704;0.152;2023-05-23T07:21:01;98365.13;;;21.86;57.37
10176;BME280;18221;38.704;0.152;2023-05-23T07:23:32;98366.16;;;21.67;57.35
10176;BME280;18221;38.704;0.152;2023-05-23T07:26:01;98377.75;;;21.74;57.42
10176;BME280;18221;38.704;0.152;2023-05-23T07:28:30;98377.06;;;21.79;57.17
10176;BME280;18221;38.704;0.152;2023-05-23T07:30:58;98383.16;;;21.74;57.18
10176;BME280;18221;38.704;0.152;2023-05-23T07:33:26;98380.34;;;21.81;57.03
10176;BME280;18221;38.704;0.152;2023-05-23T07:35:54;98380.53;;;21.86;56.83
10176;BME280;18221;38.704;0.152;2023-05-23T07:38:22;98382.47;;;21.79;56.75
10176;BME280;18221;38.704;0.152;2023-05-23T07:40:50;98379.03;;;21.72;56.88
10176;BME280;18221;38.704;0.152;2023-05-23T07:43:18;98383.59;;;21.71;57.00
10176;BME280;18221;38.704;0.152;2023-05-23T07:45:48;98371.06;;;21.77;56.90
10176;BME280;18221;38.704;0.152;2023-05-23T07:48:15;98371.50;;;21.74;57.15
10176;BME280;18221;38.704;0.152;2023-05-23T07:50:43;98373.81;;;21.52;57.70
10176;BME280;18221;38.704;0.152;2023-05-23T07:53:12;98365.47;;;21.53;57.78
10176;BME280;18221;38.704;0.152;2023-05-23T07:55:40;98379.75;;;21.42;57.98
10176;BME280;18221;38.704;0.152;2023-05-23T07:58:08;98378.09;;;21.41;57.78
10176;BME280;18221;38.704;0.152;2023-05-23T08:00:36;98373.13;;;21.38;57.93
10176;BME280;18221;38.704;0.152;2023-05-23T08:03:08;98383.06;;;21.44;58.06
10176;BME280;18221;38.704;0.152;2023-05-23T08:05:39;98378.38;;;21.33;58.13
10176;BME280;18221;38.704;0.152;2023-05-23T08:08:07;98397.25;;;21.58;57.96
10176;BME280;18221;38.704;0.152;2023-05-23T08:10:35;98402.50;;;21.53;57.98
10176;BME280;18221;38.704;0.152;2023-05-23T08:13:05;98400.63;;;21.72;57.53
10176;BME280;18221;38.704;0.152;2023-05-23T08:15:33;98396.81;;;21.61;57.70
10176;BME280;18221;38.704;0.152;2023-05-23T08:18:01;98402.56;;;21.65;57.67
10176;BME280;18221;38.704;0.152;2023-05-23T08:20:30;98404.13;;;21.54;57.66
10176;BME280;18221;38.704;0.152;2023-05-23T08:22:59;98405.72;;;21.62;57.54
10176;BME280;18221;38.704;0.152;2023-05-23T08:25:27;98413.66;;;21.57;57.58
10176;BME280;18221;38.704;0.152;2023-05-23T08:27:56;98405.06;;;21.48;57.79
10176;BME280;18221;38.704;0.152;2023-05-23T08:30:33;98401.06;;;21.50;57.75
10176;BME280;18221;38.704;0.152;2023-05-23T08:33:03;98416.09;;;21.22;58.49
10176;BME280;18221;38.704;0.152;2023-05-23T08:35:33;98406.03;;;21.11;58.98
10176;BME280;18221;38.704;0.152;2023-05-23T08:38:03;98416.22;;;21.09;59.18
10176;BME280;18221;38.704;0.152;2023-05-23T08:40:31;98409.91;;;21.15;58.98
10176;BME280;18221;38.704;0.152;2023-05-23T08:42:59;98413.84;;;21.19;58.88
10176;BME280;18221;38.704;0.152;2023-05-23T08:45:28;98411.34;;;21.17;58.98
10176;BME280;18221;38.704;0.152;2023-05-23T08:48:00;98405.53;;;21.38;58.49
10176;BME280;18221;38.704;0.152;2023-05-23T08:50:29;98407.75;;;21.48;58.20
10176;BME280;18221;38.704;0.152;2023-05-23T08:52:59;98397.97;;;21.29;58.89
10176;BME280;18221;38.704;0.152;2023-05-23T08:55:28;98421.38;;;21.35;58.96
10176;BME280;18221;38.704;0.152;2023-05-23T08:57:58;98432.59;;;21.14;59.58
10176;BME280;18221;38.704;0.152;2023-05-23T09:00:27;98431.75;;;20.82;60.47
10176;BME280;18221;38.704;0.152;2023-05-23T09:02:56;98427.31;;;20.94;59.98
10176;BME280;18221;38.704;0.152;2023-05-23T09:05:26;98435.50;;;20.81;60.15
10176;BME280;18221;38.704;0.152;2023-05-23T09:07:54;98432.66;;;21.01;59.71
10176;BME280;18221;38.704;0.152;2023-05-23T09:10:24;98429.72;;;21.02;59.55
10176;BME280;18221;38.704;0.152;2023-05-23T09:12:55;98419.53;;;21.04;59.60
10176;BME280;18221;38.704;0.152;2023-05-23T09:15:23;98422.38;;;21.16;59.22
10176;BME280;18221;38.704;0.152;2023-05-23T09:17:52;98428.69;;;21.28;59.17
10176;BME280;18221;38.704;0.152;2023-05-23T09:20:21;98411.06;;;21.25;59.16
10176;BME280;18221;38.704;0.152;2023-05-23T09:22:49;98418.97;;;21.27;59.04
10176;BME280;18221;38.704;0.152;2023-05-23T09:25:17;98418.06;;;21.33;59.04
10176;BME280;18221;38.704;0.152;2023-05-23T09:27:47;98433.81;;;21.36;58.89
10176;BME280;18221;38.704;0.152;2023-05-23T09:30:16;98441.00;;;21.24;58.96
10176;BME280;18221;38.704;0.152;2023-05-23T09:32:58;98442.59;;;21.07;59.87
10176;BME280;18221;38.704;0.152;2023-05-23T09:35:28;98438.75;;;20.89;60.05
10176;BME280;18221;38.704;0.152;2023-05-23T09:37:57;98445.78;;;20.66;60.56
10176;BME280;18221;38.704;0.152;2023-05-23T09:40:30;98449.25;;;20.73;60.27
10176;BME280;18221;38.704;0.152;2023-05-23T09:43:03;98445.69;;;20.48;61.21
10176;BME280;18221;38.704;0.152;2023-05-23T09:45:33;98452.34;;;20.76;60.79
10176;BME280;18221;38.704;0.152;2023-05-23T09:48:01;98448.44;;;20.72;60.67
10176;BME280;18221;38.704;0.152;2023-05-23T09:50:31;98473.84;;;20.89;60.41
10176;BME280;18221;38.704;0.152;2023-05-23T09:53:00;98475.34;;;20.85;60.34
10176;BME280;18221;38.704;0.152;2023-05-23T09:55:28;98485.22;;;20.98;60.23
10176;BME280;18221;38.704;0.152;2023-05-23T09:57:58;98478.31;;;21.09;59.89
10176;BME280;18221;38.704;0.152;2023-05-23T10:00:29;98473.72;;;21.09;59.90
10176;BME280;18221;38.704;0.152;2023-05-23T10:03:09;98490.31;;;21.13;59.65
10176;BME280;18221;38.704;0.152;2023-05-23T10:05:43;98487.34;;;21.21;59.43
10176;BME280;18221;38.704;0.152;2023-05-23T10:08:18;98486.47;;;21.27;59.39
10176;BME280;18221;38.704;0.152;2023-05-23T10:14:17;98486.47;;;21.27;58.86
10176;BME280;18221;38.704;0.152;2023-05-23T10:17:07;98495.59;;;21.32;58.49
10176;BME280;18221;38.704;0.152;2023-05-23T10:19:45;98493.75;;;21.26;58.58
10176;BME280;18221;38.704;0.152;2023-05-23T10:22:15;98500.81;;;21.27;58.45
10176;BME280;18221;38.704;0.152;2023-05-23T10:24:44;98502.84;;;21.32;58.25
10176;BME280;18221;38.704;0.152;2023-05-23T10:27:14;98510.28;;;21.36;58.36
10176;BME280;18221;38.704;0.152;2023-05-23T10:29:43;98510.94;;;21.32;58.29
10176;BME280;18221;38.704;0.152;2023-05-23T10:32:17;98516.88;;;21.40;58.06
10176;BME280;18221;38.704;0.152;2023-05-23T10:34:58;98515.75;;;21.30;58.22
10176;BME280;18221;38.704;0.152;2023-05-23T10:37:33;98515.34;;;21.26;58.54
10176;BME280;18221;38.704;0.152;2023-05-23T10:40:12;98523.22;;;21.28;58.54
10176;BME280;18221;38.704;0.152;2023-05-23T10:42:53;98517.19;;;21.32;58.46
10176;BME280;18221;38.704;0.152;2023-05-23T10:45:23;98522.94;;;21.36;58.35
10176;BME280;18221;38.704;0.152;2023-05-23T10:47:53;98532.03;;;21.48;58.14
10176;BME280;18221;38.704;0.152;2023-05-23T10:50:39;98522.41;;;21.52;57.99
10176;BME280;18221;38.704;0.152;2023-05-23T10:53:15;98521.38;;;21.53;57.92
10176;BME280;18221;38.704;0.152;2023-05-23T10:55:48;98523.00;;;21.54;58.02
10176;BME280;18221;38.704;0.152;2023-05-23T10:58:19;98518.00;;;21.58;57.97
10176;BME280;18221;38.704;0.152;2023-05-23T11:00:53;98524.59;;;21.62;57.83
10176;BME280;18221;38.704;0.152;2023-05-23T11:03:34;98525.44;;;21.62;57.63
10176;BME280;18221;38.704;0.152;2023-05-23T11:06:04;98518.41;;;21.61;57.71
10176;BME280;18221;38.704;0.152;2023-05-23T11:08:40;98526.50;;;21.61;57.79
10176;BME280;18221;38.704;0.152;2023-05-23T11:11:11;98528.81;;;21.58;57.97
10176;BME280;18221;38.704;0.152;2023-05-23T11:13:57;98531.66;;;21.63;57.64
10176;BME280;18221;38.704;0.152;2023-05-23T11:16:30;98528.41;;;21.54;57.99
10176;BME280;18221;38.704;0.152;2023-05-23T11:19:22;98527.53;;;21.60;57.71
10176;BME280;18221;38.704;0.152;2023-05-23T11:21:56;98518.84;;;21.58;57.91
10176;BME280;18221;38.704;0.152;2023-05-23T11:24:50;98511.56;;;21.59;57.74
10176;BME280;18221;38.704;0.152;2023-05-23T11:27:26;98520.16;;;21.49;57.81
10176;BME280;18221;38.704;0.152;2023-05-23T11:30:00;98518.50;;;21.48;57.91
10176;BME280;18221;38.704;0.152;2023-05-23T11:32:29;98525.94;;;21.52;57.78
10176;BME280;18221;38.704;0.152;2023-05-23T11:35:03;98526.94;;;21.58;57.71
10176;BME280;18221;38.704;0.152;2023-05-23T11:37:33;98535.03;;;21.58;57.73
10176;BME280;18221;38.704;0.152;2023-05-23T11:40:26;98530.16;;;21.67;57.58
10176;BME280;18221;38.704;0.152;2023-05-23T11:42:55;98532.97;;;21.53;57.74
10176;BME280;18221;38.704;0.152;2023-05-23T11:45:24;98527.56;;;21.53;57.69
10176;BME280;18221;38.704;0.152;2023-05-23T11:47:53;98530.41;;;21.65;57.60
10176;BME280;18221;38.704;0.152;2023-05-23T11:50:23;98535.19;;;21.63;57.73
10176;BME280;18221;38.704;0.152;2023-05-23T11:52:51;98528.28;;;21.67;57.82
10176;BME280;18221;38.704;0.152;2023-05-23T11:55:22;98528.88;;;21.69;57.59
10176;BME280;18221;38.704;0.152;2023-05-23T11:57:50;98524.00;;;21.84;57.70
10176;BME280;18221;38.704;0.152;2023-05-23T12:00:19;98520.94;;;21.99;57.61
10176;BME280;18221;38.704;0.152;2023-05-23T12:02:47;98525.47;;;22.23;57.37
10176;BME280;18221;38.704;0.152;2023-05-23T12:05:15;98527.25;;;22.29;57.33
10176;BME280;18221;38.704;0.152;2023-05-23T12:07:47;98538.00;;;22.36;57.33
10176;BME280;18221;38.704;0.152;2023-05-23T12:10:16;98541.75;;;22.35;57.30
10176;BME280;18221;38.704;0.152;2023-05-23T12:12:46;98538.00;;;22.36;57.25
10176;BME280;18221;38.704;0.152;2023-05-23T12:15:14;98543.88;;;22.33;57.03
10176;BME280;18221;38.704;0.152;2023-05-23T12:17:44;98547.25;;;22.28;57.23
10176;BME280;18221;38.704;0.152;2023-05-23T12:20:13;98548.69;;;22.31;56.99
10176;BME280;18221;38.704;0.152;2023-05-23T12:22:42;98550.41;;;22.07;56.95
10176;BME280;18221;38.704;0.152;2023-05-23T12:25:11;98554.22;;;21.99;56.90
10176;BME280;18221;38.704;0.152;2023-05-23T12:27:40;98552.72;;;22.03;56.87
10176;BME280;18221;38.704;0.152;2023-05-23T12:30:13;98543.94;;;22.08;56.82
10176;BME280;18221;38.704;0.152;2023-05-23T12:32:43;98536.78;;;22.13;56.55
10176;BME280;18221;38.704;0.152;2023-05-23T12:35:13;98532.00;;;22.16;56.88
10176;BME280;18221;38.704;0.152;2023-05-23T12:37:44;98540.56;;;22.12;56.78
10176;BME280;18221;38.704;0.152;2023-05-23T12:40:16;98540.41;;;22.07;56.96
10176;BME280;18221;38.704;0.152;2023-05-23T12:42:54;98539.81;;;22.05;56.90
10176;BME280;18221;38.704;0.152;2023-05-23T12:45:29;98534.41;;;22.05;56.84
10176;BME280;18221;38.704;0.152;2023-05-23T12:47:58;98535.13;;;21.94;57.08
10176;BME280;18221;38.704;0.152;2023-05-23T12:50:26;98524.94;;;21.96;56.87
10176;BME280;18221;38.704;0.152;2023-05-23T12:52:54;98527.09;;;21.88;57.29
10176;BME280;18221;38.704;0.152;2023-05-23T12:55:24;98528.22;;;21.98;57.32
10176;BME280;18221;38.704;0.152;2023-05-23T12:57:52;98526.22;;;22.12;57.38
10176;BME280;18221;38.704;0.152;2023-05-23T13:00:21;98527.25;;;22.29;57.36
10176;BME280;18221;38.704;0.152;2023-05-23T13:02:49;98531.31;;;22.38;57.29
10176;BME280;18221;38.704;0.152;2023-05-23T13:05:17;98530.41;;;22.44;57.20
10176;BME280;18221;38.704;0.152;2023-05-23T13:07:45;98517.34;;;22.41;57.04
10176;BME280;18221;38.704;0.152;2023-05-23T13:10:13;98511.25;;;22.28;57.15
10176;BME280;18221;38.704;0.152;2023-05-23T13:12:43;98515.34;;;22.19;57.32
10176;BME280;18221;38.704;0.152;2023-05-23T13:15:11;98519.38;;;22.28;57.17
10176;BME280;18221;38.704;0.152;2023-05-23T13:17:39;98518.53;;;22.27;57.09
10176;BME280;18221;38.704;0.152;2023-05-23T13:20:10;98520.88;;;22.42;57.06
10176;BME280;18221;38.704;0.152;2023-05-23T13:22:39;98515.81;;;22.45;56.81
10176;BME280;18221;38.704;0.152;2023-05-23T13:25:09;98512.06;;;22.46;56.98
10176;BME280;18221;38.704;0.152;2023-05-23T13:27:36;98515.63;;;22.65;56.83
10176;BME280;18221;38.704;0.152;2023-05-23T13:30:08;98510.38;;;22.82;56.76